Larkspur, Colorado
Current Conditions -  °F | °C
As of 6:32 AM on Thursday 30 Oct 2014 (Local Time) from KMNH Reporting Station
Clear Clear  
Wind Chill: 26°   Ceiling: Unl
Heat Index: 32°   Visibility: 10mi
Dew Point: 21°   Wind: 6mph
Humidity: 64%   Direction: 280°W
Pressure: 30.37"   Gusts: NA
Location:  39.23°N, 104.89°W
Report Text: KMNH 301232Z AUTO 28005KT 10SM CLR 00/M06 A3037 RMK AO2
Loading
Personal Weather Stations






























Interactive Weather Map
Tropical Storm Tracking
New forecast layout! Learn more

10-Day Weather Forecast

Advertisements
Track Severe Weather on mobile